sensor_id;sensor_type;location;lat;lon;timestamp;temperature;humidity
52731;DHT22;38624;53.242;6.974;2023-04-01T00:02:19;9.50;99.90
52731;DHT22;38624;53.242;6.974;2023-04-01T00:04:45;9.50;99.90
52731;DHT22;38624;53.242;6.974;2023-04-01T00:07:11;9.50;99.90
52731;DHT22;38624;53.242;6.974;2023-04-01T00:09:37;9.60;99.90
52731;DHT22;38624;53.242;6.974;2023-04-01T00:12:03;9.60;99.90
52731;DHT22;38624;53.242;6.974;2023-04-01T00:14:29;9.60;99.90
52731;DHT22;38624;53.242;6.974;2023-04-01T00:16:55;9.60;99.90
52731;DHT22;38624;53.242;6.974;2023-04-01T00:19:21;9.60;99.90
52731;DHT22;38624;53.242;6.974;2023-04-01T00:21:46;9.60;99.90
52731;DHT22;38624;53.242;6.974;2023-04-01T00:24:13;9.60;99.90
52731;DHT22;38624;53.242;6.974;2023-04-01T00:26:39;9.60;99.90
52731;DHT22;38624;53.242;6.974;2023-04-01T00:29:06;9.60;99.90
52731;DHT22;38624;53.242;6.974;2023-04-01T00:31:32;9.60;99.90
52731;DHT22;38624;53.242;6.974;2023-04-01T00:33:57;9.70;99.90
52731;DHT22;38624;53.242;6.974;2023-04-01T00:36:24;9.60;99.90
52731;DHT22;38624;53.242;6.974;2023-04-01T00:38:50;9.60;99.90
52731;DHT22;38624;53.242;6.974;2023-04-01T00:41:18;9.60;99.90
52731;DHT22;38624;53.242;6.974;2023-04-01T00:43:47;9.60;99.90
52731;DHT22;38624;53.242;6.974;2023-04-01T00:46:13;9.70;99.90
52731;DHT22;38624;53.242;6.974;2023-04-01T00:48:42;9.60;99.90
52731;DHT22;38624;53.242;6.974;2023-04-01T00:51:11;9.60;99.90
52731;DHT22;38624;53.242;6.974;2023-04-01T00:53:40;9.60;99.90
52731;DHT22;38624;53.242;6.974;2023-04-01T00:56:07;9.60;99.90
52731;DHT22;38624;53.242;6.974;2023-04-01T00:58:38;9.60;99.90
52731;DHT22;38624;53.242;6.974;2023-04-01T01:01:06;9.60;99.90
52731;DHT22;38624;53.242;6.974;2023-04-01T01:03:32;9.60;99.90
52731;DHT22;38624;53.242;6.974;2023-04-01T01:06:09;9.60;99.90
52731;DHT22;38624;53.242;6.974;2023-04-01T01:11:03;9.60;99.90
52731;DHT22;38624;53.242;6.974;2023-04-01T01:13:45;9.70;99.90
52731;DHT22;38624;53.242;6.974;2023-04-01T01:16:27;9.70;99.90
52731;DHT22;38624;53.242;6.974;2023-04-01T01:35:26;9.60;99.90
52731;DHT22;38624;53.242;6.974;2023-04-01T01:38:03;9.60;99.90
52731;DHT22;38624;53.242;6.974;2023-04-01T01:40:31;9.60;99.90
52731;DHT22;38624;53.242;6.974;2023-04-01T01:43:03;9.60;99.90
52731;DHT22;38624;53.242;6.974;2023-04-01T01:45:33;9.70;99.90
52731;DHT22;38624;53.242;6.974;2023-04-01T01:48:00;9.70;99.90
52731;DHT22;38624;53.242;6.974;2023-04-01T01:50:27;9.60;99.90
52731;DHT22;38624;53.242;6.974;2023-04-01T01:53:09;9.60;99.90
52731;DHT22;38624;53.242;6.974;2023-04-01T01:55:37;9.60;99.90
52731;DHT22;38624;53.242;6.974;2023-04-01T02:00:50;9.50;99.90
52731;DHT22;38624;53.242;6.974;2023-04-01T02:03:17;9.50;99.90
52731;DHT22;38624;53.242;6.974;2023-04-01T02:05:45;9.50;99.90
52731;DHT22;38624;53.242;6.974;2023-04-01T02:08:17;9.50;99.90
52731;DHT22;38624;53.242;6.974;2023-04-01T02:10:52;9.60;99.90
52731;DHT22;38624;53.242;6.974;2023-04-01T02:13:42;9.50;99.90
52731;DHT22;38624;53.242;6.974;2023-04-01T02:16:18;9.50;99.90
52731;DHT22;38624;53.242;6.974;2023-04-01T02:18:48;9.50;99.90
52731;DHT22;38624;53.242;6.974;2023-04-01T02:21:15;9.50;99.90
52731;DHT22;38624;53.242;6.974;2023-04-01T02:23:42;9.40;99.90
52731;DHT22;38624;53.242;6.974;2023-04-01T02:26:10;9.50;99.90
52731;DHT22;38624;53.242;6.974;2023-04-01T02:28:37;9.40;99.90
52731;DHT22;38624;53.242;6.974;2023-04-01T02:31:03;9.30;99.90
52731;DHT22;38624;53.242;6.974;2023-04-01T02:33:30;9.40;99.90
52731;DHT22;38624;53.242;6.974;2023-04-01T02:35:56;9.40;99.90
52731;DHT22;38624;53.242;6.974;2023-04-01T02:38:22;9.40;99.90
52731;DHT22;38624;53.242;6.974;2023-04-01T02:40:51;9.40;99.90
52731;DHT22;38624;53.242;6.974;2023-04-01T02:43:21;9.40;99.90
52731;DHT22;38624;53.242;6.974;2023-04-01T02:45:47;9.40;99.90
52731;DHT22;38624;53.242;6.974;2023-04-01T02:48:13;9.40;99.90
52731;DHT22;38624;53.242;6.974;2023-04-01T02:50:39;9.40;99.90
52731;DHT22;38624;53.242;6.974;2023-04-01T02:53:05;9.40;99.90
52731;DHT22;38624;53.242;6.974;2023-04-01T02:55:32;9.40;99.90
52731;DHT22;38624;53.242;6.974;2023-04-01T02:57:58;9.50;99.90
52731;DHT22;38624;53.242;6.974;2023-04-01T03:00:25;9.50;99.90
52731;DHT22;38624;53.242;6.974;2023-04-01T03:02:52;9.50;99.90
52731;DHT22;38624;53.242;6.974;2023-04-01T03:05:18;9.50;99.90
52731;DHT22;38624;53.242;6.974;2023-04-01T03:07:43;9.50;99.90
52731;DHT22;38624;53.242;6.974;2023-04-01T03:10:09;9.50;99.90
52731;DHT22;38624;53.242;6.974;2023-04-01T03:12:35;9.60;99.90
52731;DHT22;38624;53.242;6.974;2023-04-01T03:15:01;9.50;99.90
52731;DHT22;38624;53.242;6.974;2023-04-01T03:17:26;9.50;99.90
52731;DHT22;38624;53.242;6.974;2023-04-01T03:19:52;9.60;99.90
52731;DHT22;38624;53.242;6.974;2023-04-01T03:22:18;9.50;99.90
52731;DHT22;38624;53.242;6.974;2023-04-01T03:24:47;9.60;99.90
52731;DHT22;38624;53.242;6.974;2023-04-01T03:27:13;9.50;99.90
52731;DHT22;38624;53.242;6.974;2023-04-01T03:29:38;9.50;99.90
52731;DHT22;38624;53.242;6.974;2023-04-01T03:32:04;9.50;99.90
52731;DHT22;38624;53.242;6.974;2023-04-01T03:34:30;9.50;99.90
52731;DHT22;38624;53.242;6.974;2023-04-01T03:36:56;9.50;99.90
52731;DHT22;38624;53.242;6.974;2023-04-01T03:39:22;9.50;99.90
52731;DHT22;38624;53.242;6.974;2023-04-01T03:41:47;9.40;99.90
52731;DHT22;38624;53.242;6.974;2023-04-01T03:44:14;9.50;99.90
52731;DHT22;38624;53.242;6.974;2023-04-01T03:46:39;9.40;99.90
52731;DHT22;38624;53.242;6.974;2023-04-01T03:49:10;9.50;99.90
52731;DHT22;38624;53.242;6.974;2023-04-01T03:51:40;9.40;99.90
52731;DHT22;38624;53.242;6.974;2023-04-01T03:54:06;9.40;99.90
52731;DHT22;38624;53.242;6.974;2023-04-01T03:56:32;9.40;99.90
52731;DHT22;38624;53.242;6.974;2023-04-01T03:58:58;9.40;99.90
52731;DHT22;38624;53.242;6.974;2023-04-01T04:01:26;9.40;99.90
52731;DHT22;38624;53.242;6.974;2023-04-01T04:03:53;9.40;99.90
52731;DHT22;38624;53.242;6.974;2023-04-01T04:06:19;9.40;99.90
52731;DHT22;38624;53.242;6.974;2023-04-01T04:08:45;9.50;99.90
52731;DHT22;38624;53.242;6.974;2023-04-01T04:11:12;9.50;99.90
52731;DHT22;38624;53.242;6.974;2023-04-01T04:13:38;9.50;99.90
52731;DHT22;38624;53.242;6.974;2023-04-01T04:16:04;9.50;99.90
52731;DHT22;38624;53.242;6.974;2023-04-01T04:18:29;9.50;99.90
52731;DHT22;38624;53.242;6.974;2023-04-01T04:20:55;9.50;99.90
52731;DHT22;38624;53.242;6.974;2023-04-01T04:23:21;9.50;99.90
52731;DHT22;38624;53.242;6.974;2023-04-01T04:26:14;9.50;99.90
52731;DHT22;38624;53.242;6.974;2023-04-01T04:28:40;9.40;99.90
52731;DHT22;38624;53.242;6.974;2023-04-01T04:31:06;9.50;99.90
52731;DHT22;38624;53.242;6.974;2023-04-01T04:33:33;9.50;99.90
52731;DHT22;38624;53.242;6.974;2023-04-01T04:35:59;9.40;99.90
52731;DHT22;38624;53.242;6.974;2023-04-01T04:38:26;9.40;99.90
52731;DHT22;38624;53.242;6.974;2023-04-01T04:40:52;9.40;99.90
52731;DHT22;38624;53.242;6.974;2023-04-01T04:43:18;9.50;99.90
52731;DHT22;38624;53.242;6.974;2023-04-01T04:45:44;9.40;99.90
52731;DHT22;38624;53.242;6.974;2023-04-01T04:48:12;9.40;99.90
52731;DHT22;38624;53.242;6.974;2023-04-01T04:50:41;9.50;99.90
52731;DHT22;38624;53.242;6.974;2023-04-01T04:53:10;9.50;99.90
52731;DHT22;38624;53.242;6.974;2023-04-01T04:55:36;9.60;99.90
52731;DHT22;38624;53.242;6.974;2023-04-01T04:58:01;9.50;99.90
52731;DHT22;38624;53.242;6.974;2023-04-01T05:00:27;9.50;99.90
52731;DHT22;38624;53.242;6.974;2023-04-01T05:02:53;9.60;99.90
52731;DHT22;38624;53.242;6.974;2023-04-01T05:05:19;9.60;99.90
52731;DHT22;38624;53.242;6.974;2023-04-01T05:07:44;9.60;99.90
52731;DHT22;38624;53.242;6.974;2023-04-01T05:10:10;9.50;99.90
52731;DHT22;38624;53.242;6.974;2023-04-01T05:12:36;9.60;99.90
52731;DHT22;38624;53.242;6.974;2023-04-01T05:15:05;9.50;99.90
52731;DHT22;38624;53.242;6.974;2023-04-01T05:17:31;9.50;99.90
52731;DHT22;38624;53.242;6.974;2023-04-01T05:19:57;9.50;99.90
52731;DHT22;38624;53.242;6.974;2023-04-01T05:22:23;9.50;99.90
52731;DHT22;38624;53.242;6.974;2023-04-01T05:24:49;9.50;99.90
52731;DHT22;38624;53.242;6.974;2023-04-01T05:27:15;9.50;99.90
52731;DHT22;38624;53.242;6.974;2023-04-01T05:29:41;9.50;99.90
52731;DHT22;38624;53.242;6.974;2023-04-01T05:32:07;9.60;99.90
52731;DHT22;38624;53.242;6.974;2023-04-01T05:34:32;9.50;99.90
52731;DHT22;38624;53.242;6.974;2023-04-01T05:36:58;9.60;99.90
52731;DHT22;38624;53.242;6.974;2023-04-01T05:39:24;9.60;99.90
52731;DHT22;38624;53.242;6.974;2023-04-01T05:41:49;9.60;99.90
52731;DHT22;38624;53.242;6.974;2023-04-01T05:44:15;9.60;99.90
52731;DHT22;38624;53.242;6.974;2023-04-01T05:46:41;9.60;99.90
52731;DHT22;38624;53.242;6.974;2023-04-01T05:49:07;9.60;99.90
52731;DHT22;38624;53.242;6.974;2023-04-01T05:51:33;9.70;99.90
52731;DHT22;38624;53.242;6.974;2023-04-01T05:53:58;9.60;99.90
52731;DHT22;38624;53.242;6.974;2023-04-01T05:56:24;9.60;99.90
52731;DHT22;38624;53.242;6.974;2023-04-01T05:58:52;9.70;99.90
52731;DHT22;38624;53.242;6.974;2023-04-01T06:01:18;9.70;99.90
52731;DHT22;38624;53.242;6.974;2023-04-01T06:03:44;9.80;99.90
52731;DHT22;38624;53.242;6.974;2023-04-01T06:06:15;9.80;99.90
52731;DHT22;38624;53.242;6.974;2023-04-01T06:08:42;9.80;99.90
52731;DHT22;38624;53.242;6.974;2023-04-01T06:25:04;10.10;99.90
52731;DHT22;38624;53.242;6.974;2023-04-01T06:28:04;10.10;99.90
52731;DHT22;38624;53.242;6.974;2023-04-01T06:30:43;10.10;99.90
52731;DHT22;38624;53.242;6.974;2023-04-01T06:33:20;10.10;99.90
52731;DHT22;38624;53.242;6.974;2023-04-01T06:54:36;10.30;99.90
52731;DHT22;38624;53.242;6.974;2023-04-01T06:57:43;10.30;99.90
52731;DHT22;38624;53.242;6.974;2023-04-01T07:00:16;10.40;99.90
52731;DHT22;38624;53.242;6.974;2023-04-01T07:02:52;10.40;99.90
52731;DHT22;38624;53.242;6.974;2023-04-01T07:05:22;10.60;99.90
52731;DHT22;38624;53.242;6.974;2023-04-01T07:07:51;10.80;99.90
52731;DHT22;38624;53.242;6.974;2023-04-01T07:10:32;10.80;99.90
52731;DHT22;38624;53.242;6.974;2023-04-01T07:13:04;10.90;99.90
52731;DHT22;38624;53.242;6.974;2023-04-01T07:15:41;11.00;99.90
52731;DHT22;38624;53.242;6.974;2023-04-01T07:18:14;11.10;99.90
52731;DHT22;38624;53.242;6.974;2023-04-01T07:20:41;11.10;99.90
52731;DHT22;38624;53.242;6.974;2023-04-01T07:23:16;11.10;99.90
52731;DHT22;38624;53.242;6.974;2023-04-01T07:25:48;11.00;99.90
52731;DHT22;38624;53.242;6.974;2023-04-01T07:28:17;11.10;99.90
52731;DHT22;38624;53.242;6.974;2023-04-01T07:36:22;11.50;99.90
52731;DHT22;38624;53.242;6.974;2023-04-01T07:38:57;11.60;99.90
52731;DHT22;38624;53.242;6.974;2023-04-01T07:52:54;11.60;99.90
52731;DHT22;38624;53.242;6.974;2023-04-01T07:55:45;11.50;99.90
52731;DHT22;38624;53.242;6.974;2023-04-01T07:58:38;11.50;99.90
52731;DHT22;38624;53.242;6.974;2023-04-01T08:04:37;11.60;99.90
52731;DHT22;38624;53.242;6.974;2023-04-01T08:07:08;11.80;99.90
52731;DHT22;38624;53.242;6.974;2023-04-01T08:15:27;12.10;99.90
52731;DHT22;38624;53.242;6.974;2023-04-01T08:20:44;12.30;99.90
52731;DHT22;38624;53.242;6.974;2023-04-01T08:25:44;12.30;99.90
52731;DHT22;38624;53.242;6.974;2023-04-01T08:31:25;12.50;99.90
52731;DHT22;38624;53.242;6.974;2023-04-01T08:33:55;12.50;99.90
52731;DHT22;38624;53.242;6.974;2023-04-01T08:36:31;12.50;99.90
52731;DHT22;38624;53.242;6.974;2023-04-01T08:39:16;12.50;99.90
52731;DHT22;38624;53.242;6.974;2023-04-01T08:52:41;12.60;99.90
52731;DHT22;38624;53.242;6.974;2023-04-01T08:55:36;12.60;99.90
52731;DHT22;38624;53.242;6.974;2023-04-01T08:58:22;12.30;99.90
52731;DHT22;38624;53.242;6.974;2023-04-01T09:01:21;12.10;99.90
52731;DHT22;38624;53.242;6.974;2023-04-01T09:15:30;11.40;99.90
52731;DHT22;38624;53.242;6.974;2023-04-01T09:21:19;11.20;99.90
52731;DHT22;38624;53.242;6.974;2023-04-01T09:27:03;11.00;99.90
52731;DHT22;38624;53.242;6.974;2023-04-01T09:29:34;10.90;99.90
52731;DHT22;38624;53.242;6.974;2023-04-01T09:37:54;10.70;99.90
52731;DHT22;38624;53.242;6.974;2023-04-01T09:43:23;10.80;99.90
52731;DHT22;38624;53.242;6.974;2023-04-01T09:54:33;10.80;99.90
52731;DHT22;38624;53.242;6.974;2023-04-01T10:31:03;10.60;99.90
52731;DHT22;38624;53.242;6.974;2023-04-01T10:36:57;10.80;99.90
52731;DHT22;38624;53.242;6.974;2023-04-01T10:48:17;11.20;99.90
52731;DHT22;38624;53.242;6.974;2023-04-01T10:54:13;11.40;99.90
52731;DHT22;38624;53.242;6.974;2023-04-01T10:56:55;11.50;99.90
52731;DHT22;38624;53.242;6.974;2023-04-01T10:59:58;11.50;99.90
52731;DHT22;38624;53.242;6.974;2023-04-01T11:08:14;11.40;99.90
52731;DHT22;38624;53.242;6.974;2023-04-01T11:13:54;11.40;99.90
52731;DHT22;38624;53.242;6.974;2023-04-01T11:22:20;11.60;99.90
52731;DHT22;38624;53.242;6.974;2023-04-01T11:38:22;11.90;99.90
52731;DHT22;38624;53.242;6.974;2023-04-01T11:43:54;12.20;99.90
52731;DHT22;38624;53.242;6.974;2023-04-01T11:52:20;12.90;99.90
52731;DHT22;38624;53.242;6.974;2023-04-01T12:17:34;12.30;99.90
52731;DHT22;38624;53.242;6.974;2023-04-01T12:30:55;11.70;99.90
52731;DHT22;38624;53.242;6.974;2023-04-01T12:36:13;11.60;99.90
52731;DHT22;38624;53.242;6.974;2023-04-01T12:39:14;11.70;99.90
52731;DHT22;38624;53.242;6.974;2023-04-01T12:55:36;11.40;99.90
52731;DHT22;38624;53.242;6.974;2023-04-01T13:01:10;11.40;99.90
52731;DHT22;38624;53.242;6.974;2023-04-01T13:11:23;11.40;99.90
52731;DHT22;38624;53.242;6.974;2023-04-01T13:20:36;11.30;99.90
52731;DHT22;38624;53.242;6.974;2023-04-01T13:23:11;11.30;99.90
52731;DHT22;38624;53.242;6.974;2023-04-01T13:25:52;11.30;99.90
52731;DHT22;38624;53.242;6.974;2023-04-01T13:28:37;11.30;99.90
52731;DHT22;38624;53.242;6.974;2023-04-01T13:31:29;11.30;99.90
52731;DHT22;38624;53.242;6.974;2023-04-01T13:34:21;11.40;99.90
52731;DHT22;38624;53.242;6.974;2023-04-01T13:39:57;11.50;99.90
52731;DHT22;38624;53.242;6.974;2023-04-01T13:42:26;11.40;99.90
52731;DHT22;38624;53.242;6.974;2023-04-01T13:45:16;11.30;99.90
52731;DHT22;38624;53.242;6.974;2023-04-01T13:59:03;11.00;99.90
52731;DHT22;38624;53.242;6.974;2023-04-01T14:12:13;10.70;99.90
52731;DHT22;38624;53.242;6.974;2023-04-01T14:20:33;10.40;99.90
52731;DHT22;38624;53.242;6.974;2023-04-01T14:26:16;10.30;99.90
52731;DHT22;38624;53.242;6.974;2023-04-01T14:31:54;10.20;99.90
52731;DHT22;38624;53.242;6.974;2023-04-01T14:34:53;10.20;99.90
52731;DHT22;38624;53.242;6.974;2023-04-01T14:48:37;10.00;99.90
52731;DHT22;38624;53.242;6.974;2023-04-01T14:51:22;10.00;99.90
52731;DHT22;38624;53.242;6.974;2023-04-01T15:01:45;9.90;99.90
52731;DHT22;38624;53.242;6.974;2023-04-01T15:12:46;9.80;99.90
52731;DHT22;38624;53.242;6.974;2023-04-01T15:34:17;9.50;99.90
52731;DHT22;38624;53.242;6.974;2023-04-01T15:39:49;9.30;99.90
52731;DHT22;38624;53.242;6.974;2023-04-01T15:42:25;9.30;99.90
52731;DHT22;38624;53.242;6.974;2023-04-01T15:53:44;9.20;99.90
52731;DHT22;38624;53.242;6.974;2023-04-01T16:02:23;9.00;99.90
52731;DHT22;38624;53.242;6.974;2023-04-01T16:10:45;9.00;99.90
52731;DHT22;38624;53.242;6.974;2023-04-01T16:13:41;8.90;99.90
52731;DHT22;38624;53.242;6.974;2023-04-01T16:16:24;8.80;99.90
52731;DHT22;38624;53.242;6.974;2023-04-01T16:24:30;8.60;99.90
52731;DHT22;38624;53.242;6.974;2023-04-01T16:29:49;8.60;99.90
52731;DHT22;38624;53.242;6.974;2023-04-01T16:32:36;8.60;99.90
52731;DHT22;38624;53.242;6.974;2023-04-01T16:38:11;8.60;99.90
52731;DHT22;38624;53.242;6.974;2023-04-01T16:41:04;8.50;99.90
52731;DHT22;38624;53.242;6.974;2023-04-01T16:43:39;8.40;99.90
52731;DHT22;38624;53.242;6.974;2023-04-01T16:54:54;8.30;99.90
52731;DHT22;38624;53.242;6.974;2023-04-01T16:57:51;8.30;99.90
52731;DHT22;38624;53.242;6.974;2023-04-01T17:02:50;8.20;99.90
52731;DHT22;38624;53.242;6.974;2023-04-01T17:05:18;8.10;99.90
52731;DHT22;38624;53.242;6.974;2023-04-01T17:08:06;8.10;99.90
52731;DHT22;38624;53.242;6.974;2023-04-01T17:11:53;8.10;99.90
52731;DHT22;38624;53.242;6.974;2023-04-01T17:16:42;8.00;99.90
52731;DHT22;38624;53.242;6.974;2023-04-01T17:21:56;7.90;99.90
52731;DHT22;38624;53.242;6.974;2023-04-01T17:24:45;8.00;99.90
52731;DHT22;38624;53.242;6.974;2023-04-01T17:27:51;8.00;99.90
52731;DHT22;38624;53.242;6.974;2023-04-01T17:33:25;7.80;99.90
52731;DHT22;38624;53.242;6.974;2023-04-01T17:39:10;7.80;99.90
52731;DHT22;38624;53.242;6.974;2023-04-01T17:41:46;7.80;99.90
52731;DHT22;38624;53.242;6.974;2023-04-01T17:44:34;7.80;99.90
52731;DHT22;38624;53.242;6.974;2023-04-01T17:50:18;7.70;99.90
52731;DHT22;38624;53.242;6.974;2023-04-01T17:58:50;7.50;99.90
52731;DHT22;38624;53.242;6.974;2023-04-01T18:04:56;7.50;99.90
52731;DHT22;38624;53.242;6.974;2023-04-01T18:15:54;7.40;99.90
52731;DHT22;38624;53.242;6.974;2023-04-01T18:23:43;7.20;99.90
52731;DHT22;38624;53.242;6.974;2023-04-01T18:26:18;7.20;99.90
52731;DHT22;38624;53.242;6.974;2023-04-01T18:31:43;7.20;99.90
52731;DHT22;38624;53.242;6.974;2023-04-01T18:39:52;7.10;99.90
52731;DHT22;38624;53.242;6.974;2023-04-01T18:45:37;7.10;99.90
52731;DHT22;38624;53.242;6.974;2023-04-01T18:54:32;7.00;99.90
52731;DHT22;38624;53.242;6.974;2023-04-01T18:57:11;7.00;99.90
52731;DHT22;38624;53.242;6.974;2023-04-01T19:00:05;6.90;99.90
52731;DHT22;38624;53.242;6.974;2023-04-01T19:02:45;6.80;99.90
52731;DHT22;38624;53.242;6.974;2023-04-01T19:05:16;6.80;99.90
52731;DHT22;38624;53.242;6.974;2023-04-01T19:07:47;6.80;99.90
52731;DHT22;38624;53.242;6.974;2023-04-01T19:16:04;6.80;99.90
52731;DHT22;38624;53.242;6.974;2023-04-01T19:27:18;6.70;99.90
52731;DHT22;38624;53.242;6.974;2023-04-01T19:32:49;6.60;99.90
52731;DHT22;38624;53.242;6.974;2023-04-01T19:35:38;6.60;99.90
52731;DHT22;38624;53.242;6.974;2023-04-01T19:38:37;6.50;99.90
52731;DHT22;38624;53.242;6.974;2023-04-01T19:44:41;6.50;99.90
52731;DHT22;38624;53.242;6.974;2023-04-01T19:50:04;6.50;99.90
52731;DHT22;38624;53.242;6.974;2023-04-01T19:52:36;6.40;99.90
52731;DHT22;38624;53.242;6.974;2023-04-01T19:58:04;6.40;99.90
52731;DHT22;38624;53.242;6.974;2023-04-01T20:00:37;6.40;99.90
52731;DHT22;38624;53.242;6.974;2023-04-01T20:08:37;6.50;99.90
52731;DHT22;38624;53.242;6.974;2023-04-01T20:16:48;6.40;99.90
52731;DHT22;38624;53.242;6.974;2023-04-01T20:19:43;7.30;99.90
52731;DHT22;38624;53.242;6.974;2023-04-01T20:25:11;6.30;99.90
52731;DHT22;38624;53.242;6.974;2023-04-01T20:27:52;6.30;99.90
52731;DHT22;38624;53.242;6.974;2023-04-01T20:38:48;6.30;99.90
52731;DHT22;38624;53.242;6.974;2023-04-01T20:41:32;6.30;99.90
52731;DHT22;38624;53.242;6.974;2023-04-01T20:44:41;6.30;99.90
52731;DHT22;38624;53.242;6.974;2023-04-01T20:50:18;6.30;99.90
52731;DHT22;38624;53.242;6.974;2023-04-01T20:53:11;6.20;99.90
52731;DHT22;38624;53.242;6.974;2023-04-01T20:58:42;6.10;99.90
52731;DHT22;38624;53.242;6.974;2023-04-01T21:01:14;6.10;99.90
52731;DHT22;38624;53.242;6.974;2023-04-01T21:06:37;6.10;99.90
52731;DHT22;38624;53.242;6.974;2023-04-01T21:26:47;6.00;99.90
52731;DHT22;38624;53.242;6.974;2023-04-01T21:42:21;5.80;99.90
52731;DHT22;38624;53.242;6.974;2023-04-01T21:59:54;4.80;99.90
52731;DHT22;38624;53.242;6.974;2023-04-01T22:07:41;5.50;99.90
52731;DHT22;38624;53.242;6.974;2023-04-01T22:13:46;5.40;99.90
52731;DHT22;38624;53.242;6.974;2023-04-01T22:19:15;5.50;99.90
52731;DHT22;38624;53.242;6.974;2023-04-01T22:24:54;5.30;99.90
52731;DHT22;38624;53.242;6.974;2023-04-01T22:27:41;5.50;99.90
52731;DHT22;38624;53.242;6.974;2023-04-01T22:30:33;5.30;99.90
52731;DHT22;38624;53.242;6.974;2023-04-01T22:34:03;5.30;99.90
52731;DHT22;38624;53.242;6.974;2023-04-01T22:41:37;5.20;99.90
52731;DHT22;38624;53.242;6.974;2023-04-01T22:52:35;5.20;99.90
52731;DHT22;38624;53.242;6.974;2023-04-01T22:55:13;5.20;99.90
52731;DHT22;38624;53.242;6.974;2023-04-01T22:58:03;5.10;99.90
52731;DHT22;38624;53.242;6.974;2023-04-01T23:00:41;5.20;99.90
52731;DHT22;38624;53.242;6.974;2023-04-01T23:03:34;5.70;99.90
52731;DHT22;38624;53.242;6.974;2023-04-01T23:06:03;5.10;99.90
52731;DHT22;38624;53.242;6.974;2023-04-01T23:20:12;5.10;99.90
52731;DHT22;38624;53.242;6.974;2023-04-01T23:23:15;4.90;99.90
52731;DHT22;38624;53.242;6.974;2023-04-01T23:25:58;4.70;99.90
52731;DHT22;38624;53.242;6.974;2023-04-01T23:28:48;4.60;99.90
52731;DHT22;38624;53.242;6.974;2023-04-01T23:34:25;4.10;99.90
52731;DHT22;38624;53.242;6.974;2023-04-01T23:37:07;4.00;99.90
52731;DHT22;38624;53.242;6.974;2023-04-01T23:39:42;4.50;99.90
52731;DHT22;38624;53.242;6.974;2023-04-01T23:44:48;3.70;99.90
52731;DHT22;38624;53.242;6.974;2023-04-01T23:47:18;3.70;99.90
52731;DHT22;38624;53.242;6.974;2023-04-01T23:49:48;4.00;99.90
52731;DHT22;38624;53.242;6.974;2023-04-01T23:52:27;4.30;99.90
52731;DHT22;38624;53.242;6.974;2023-04-01T23:55:01;3.50;99.90
52731;DHT22;38624;53.242;6.974;2023-04-01T23:57:33;3.40;99.90
